createdAt,value
2022-10-27T00:01:34.288Z,13.93
2022-10-27T00:03:57.076Z,14.35
2022-10-27T00:06:19.535Z,15.30
2022-10-27T00:08:42.109Z,14.48
2022-10-27T00:11:06.895Z,14.30
2022-10-27T00:13:30.234Z,14.18
2022-10-27T00:15:57.303Z,14.30
2022-10-27T00:18:19.890Z,14.37
2022-10-27T00:20:42.395Z,13.45
2022-10-27T00:23:05.188Z,14.50
2022-10-27T00:25:27.844Z,15.10
2022-10-27T00:27:50.746Z,14.68
2022-10-27T00:30:13.464Z,14.03
2022-10-27T00:32:36.134Z,14.65
2022-10-27T00:34:58.690Z,13.65
2022-10-27T00:37:21.405Z,14.02
2022-10-27T00:39:44.029Z,14.43
2022-10-27T00:42:06.719Z,13.63
2022-10-27T00:44:40.976Z,14.00
2022-10-27T00:47:09.660Z,14.48
2022-10-27T00:49:58.338Z,15.23
2022-10-27T00:52:30.689Z,13.80
2022-10-27T00:54:57.072Z,13.40
2022-10-27T00:57:19.660Z,14.10
2022-10-27T00:59:42.752Z,13.88
2022-10-27T01:02:07.278Z,13.65
2022-10-27T01:04:42.775Z,14.45
2022-10-27T01:07:05.460Z,13.80
2022-10-27T01:09:28.964Z,14.35
2022-10-27T01:11:51.558Z,14.13
2022-10-27T01:14:14.199Z,14.27
2022-10-27T01:16:49.338Z,14.50
2022-10-27T01:19:51.655Z,13.53
2022-10-27T01:22:14.162Z,13.85
2022-10-27T01:24:48.631Z,14.38
2022-10-27T01:27:40.348Z,14.75
2022-10-27T01:30:23.727Z,15.75
2022-10-27T01:32:52.468Z,15.17
2022-10-27T01:35:42.495Z,14.80
2022-10-27T01:38:26.986Z,14.90
2022-10-27T01:40:56.773Z,14.85
2022-10-27T01:43:24.720Z,15.02
2022-10-27T01:45:48.489Z,15.17
2022-10-27T01:48:12.375Z,15.43
2022-10-27T01:50:45.367Z,15.75
2022-10-27T01:53:19.810Z,15.43
2022-10-27T01:56:07.169Z,15.02
2022-10-27T01:58:53.417Z,15.07
2022-10-27T02:04:20.650Z,15.40
2022-10-27T02:06:52.967Z,15.07
2022-10-27T02:09:40.071Z,14.95
2022-10-27T02:12:07.945Z,14.83
2022-10-27T02:14:30.821Z,15.23
2022-10-27T02:16:54.118Z,15.95
2022-10-27T02:19:30.332Z,14.93
2022-10-27T02:21:56.402Z,15.18
2022-10-27T02:24:19.881Z,15.43
2022-10-27T02:26:53.058Z,15.27
2022-10-27T02:29:35.471Z,16.00
2022-10-27T02:32:02.816Z,15.57
2022-10-27T02:34:27.392Z,15.13
2022-10-27T02:36:50.062Z,15.80
2022-10-27T02:39:12.639Z,15.85
2022-10-27T02:41:35.255Z,15.60
2022-10-27T02:43:57.777Z,14.82
2022-10-27T02:46:20.265Z,15.68
2022-10-27T02:48:43.045Z,16.23
2022-10-27T02:51:06.099Z,15.90
2022-10-27T02:53:28.625Z,16.50
2022-10-27T02:55:51.316Z,16.77
2022-10-27T02:58:14.187Z,19.00
2022-10-27T03:00:37.089Z,20.30
2022-10-27T03:02:59.701Z,18.42
2022-10-27T03:05:22.290Z,21.42
2022-10-27T03:07:44.996Z,23.63
2022-10-27T03:10:08.016Z,22.63
2022-10-27T03:12:30.612Z,19.90
2022-10-27T03:14:53.130Z,19.38
2022-10-27T03:17:15.756Z,19.33
2022-10-27T03:19:38.348Z,17.90
2022-10-27T03:22:00.875Z,21.00
2022-10-27T03:24:23.491Z,23.63
2022-10-27T03:26:46.414Z,23.55
2022-10-27T03:29:09.372Z,23.65
2022-10-27T03:31:31.900Z,22.17
2022-10-27T03:33:54.668Z,19.40
2022-10-27T03:36:17.161Z,18.30
2022-10-27T03:38:39.948Z,17.70
2022-10-27T03:41:02.622Z,16.35
2022-10-27T03:43:25.187Z,16.25
2022-10-27T03:45:55.072Z,17.48
2022-10-27T03:48:19.858Z,16.73
2022-10-27T03:50:49.195Z,16.25
2022-10-27T03:53:11.698Z,17.20
2022-10-27T03:55:35.732Z,15.93
2022-10-27T03:57:59.088Z,16.35
2022-10-27T04:00:22.489Z,15.80
2022-10-27T04:02:45.031Z,15.50
2022-10-27T04:05:07.886Z,16.98
2022-10-27T04:07:30.476Z,16.27
2022-10-27T04:09:53.062Z,16.27
2022-10-27T04:12:15.651Z,15.43
2022-10-27T04:14:38.174Z,16.02
2022-10-27T04:17:00.785Z,16.40
2022-10-27T04:19:23.463Z,15.80
2022-10-27T04:21:46.744Z,16.42
2022-10-27T04:24:09.380Z,16.43
2022-10-27T04:26:31.906Z,16.38
2022-10-27T04:28:54.484Z,16.45
2022-10-27T04:31:17.202Z,16.83
2022-10-27T04:33:40.979Z,16.35
2022-10-27T04:36:05.468Z,15.87
2022-10-27T04:38:28.609Z,16.17
2022-10-27T04:40:51.702Z,16.45
2022-10-27T04:43:14.352Z,16.98
2022-10-27T04:45:37.006Z,16.95
2022-10-27T04:47:59.876Z,16.43
2022-10-27T04:50:22.512Z,15.95
2022-10-27T04:52:58.323Z,17.15
2022-10-27T04:55:20.903Z,17.80
2022-10-27T04:57:43.416Z,17.75
2022-10-27T05:00:06.716Z,16.80
2022-10-27T05:02:29.946Z,17.88
2022-10-27T05:04:54.642Z,17.02
2022-10-27T05:07:17.130Z,17.35
2022-10-27T05:09:39.695Z,18.10
2022-10-27T05:12:02.227Z,16.67
2022-10-27T05:14:25.116Z,22.00
2022-10-27T05:16:47.776Z,20.88
2022-10-27T05:19:10.523Z,18.80
2022-10-27T05:21:33.156Z,18.92
2022-10-27T05:23:55.679Z,18.27
2022-10-27T05:26:18.292Z,17.75
2022-10-27T05:28:44.167Z,18.42
2022-10-27T05:31:06.711Z,18.73
2022-10-27T05:33:29.593Z,18.17
2022-10-27T05:35:52.327Z,17.20
2022-10-27T05:38:15.243Z,17.77
2022-10-27T05:40:37.971Z,17.35
2022-10-27T05:43:02.531Z,16.77
2022-10-27T05:45:25.354Z,17.17
2022-10-27T05:47:48.192Z,18.67
2022-10-27T05:50:10.813Z,17.65
2022-10-27T05:52:33.420Z,17.00
2022-10-27T05:54:56.092Z,16.95
2022-10-27T05:57:18.701Z,17.08
2022-10-27T05:59:41.287Z,16.73
2022-10-27T06:02:04.140Z,19.20
2022-10-27T06:04:26.994Z,17.55
2022-10-27T06:06:49.584Z,17.33
2022-10-27T06:09:12.213Z,15.95
2022-10-27T06:11:34.813Z,15.90
2022-10-27T06:13:57.387Z,16.20
2022-10-27T06:16:25.605Z,16.33
2022-10-27T06:18:48.201Z,15.80
2022-10-27T06:21:10.901Z,16.13
2022-10-27T06:23:33.599Z,16.57
2022-10-27T06:25:56.909Z,15.38
2022-10-27T06:28:22.159Z,16.17
2022-10-27T06:30:45.291Z,16.77
2022-10-27T06:33:07.900Z,16.95
2022-10-27T06:35:30.435Z,17.23
2022-10-27T06:37:53.014Z,16.98
2022-10-27T06:40:18.370Z,17.17
2022-10-27T06:43:01.783Z,16.98
2022-10-27T06:45:24.332Z,16.98
2022-10-27T06:47:56.257Z,16.13
2022-10-27T06:50:18.875Z,15.20
2022-10-27T06:52:41.522Z,16.00
2022-10-27T06:55:05.506Z,15.82
2022-10-27T06:57:28.177Z,16.48
2022-10-27T06:59:50.880Z,16.43
2022-10-27T07:02:16.877Z,16.88
2022-10-27T07:04:39.643Z,16.65
2022-10-27T07:07:02.302Z,16.10
2022-10-27T07:09:29.840Z,16.15
2022-10-27T07:11:54.223Z,14.70
2022-10-27T07:14:17.578Z,16.23
2022-10-27T07:16:41.363Z,15.98
2022-10-27T07:19:03.950Z,15.95
2022-10-27T07:21:28.022Z,16.08
2022-10-27T07:23:50.742Z,15.70
2022-10-27T07:26:13.352Z,14.88
2022-10-27T07:28:36.340Z,16.30
2022-10-27T07:30:59.296Z,15.55
2022-10-27T07:33:22.511Z,14.90
2022-10-27T07:35:50.241Z,16.73
2022-10-27T07:38:13.081Z,14.65
2022-10-27T07:40:36.250Z,15.18
2022-10-27T07:43:05.049Z,14.75
2022-10-27T07:45:30.856Z,14.82
2022-10-27T07:47:56.298Z,14.37
2022-10-27T07:50:24.210Z,15.73
2022-10-27T07:52:52.326Z,15.73
2022-10-27T07:55:16.565Z,16.00
2022-10-27T07:57:39.268Z,16.17
2022-10-27T08:00:03.190Z,17.00
2022-10-27T08:02:34.911Z,15.85
2022-10-27T08:04:57.795Z,17.05
2022-10-27T08:07:20.353Z,15.95
2022-10-27T08:09:44.231Z,17.40
2022-10-27T08:12:07.703Z,16.80
2022-10-27T08:14:30.197Z,16.80
2022-10-27T08:16:52.771Z,16.70
2022-10-27T08:19:16.856Z,18.17
2022-10-27T08:21:39.346Z,18.23
2022-10-27T08:24:02.161Z,19.00
2022-10-27T08:26:24.843Z,15.95
2022-10-27T08:28:48.956Z,17.25
2022-10-27T08:31:11.450Z,16.67
2022-10-27T08:33:34.085Z,16.75
2022-10-27T08:35:56.662Z,17.27
2022-10-27T08:38:20.032Z,17.77
2022-10-27T08:40:42.828Z,19.13
2022-10-27T08:43:37.755Z,16.38
2022-10-27T08:46:25.516Z,17.98
2022-10-27T08:48:49.572Z,17.03
2022-10-27T08:51:17.208Z,17.10
2022-10-27T08:53:41.687Z,16.65
2022-10-27T08:56:12.109Z,16.73
2022-10-27T08:58:38.066Z,17.00
2022-10-27T09:01:23.644Z,17.53
2022-10-27T09:04:11.386Z,18.27
2022-10-27T09:06:49.655Z,19.10
2022-10-27T09:09:17.195Z,18.73
2022-10-27T09:12:06.666Z,18.50
2022-10-27T09:14:47.733Z,17.63
2022-10-27T09:17:13.332Z,18.10
2022-10-27T09:19:45.125Z,18.83
2022-10-27T09:22:19.658Z,18.83
2022-10-27T09:24:42.300Z,17.80
2022-10-27T09:27:05.707Z,16.77
2022-10-27T09:29:36.331Z,17.55
2022-10-27T09:32:13.351Z,17.63
2022-10-27T09:35:17.782Z,18.00
2022-10-27T09:37:43.643Z,17.42
2022-10-27T09:40:13.026Z,17.60
2022-10-27T09:42:35.998Z,17.90
2022-10-27T09:45:01.591Z,17.35
2022-10-27T09:49:57.642Z,19.45
2022-10-27T09:52:28.773Z,19.17
2022-10-27T09:54:55.532Z,17.95
2022-10-27T09:57:19.810Z,17.92
2022-10-27T09:59:42.982Z,17.60
2022-10-27T10:02:23.659Z,18.15
2022-10-27T10:04:47.527Z,17.13
2022-10-27T10:07:30.367Z,16.80
2022-10-27T10:10:23.371Z,17.98
2022-10-27T10:13:09.680Z,17.40
2022-10-27T10:15:37.679Z,17.60
2022-10-27T10:18:02.652Z,17.27
2022-10-27T10:23:24.299Z,17.92
2022-10-27T10:25:49.504Z,17.58
2022-10-27T10:28:30.605Z,22.80
2022-10-27T10:30:57.755Z,18.27
2022-10-27T10:33:24.614Z,18.25
2022-10-27T10:35:49.249Z,17.27
2022-10-27T10:38:23.870Z,17.80
2022-10-27T10:40:59.127Z,17.80
2022-10-27T10:43:22.023Z,18.00
2022-10-27T10:45:53.022Z,17.67
2022-10-27T10:48:15.614Z,17.55
2022-10-27T10:50:57.245Z,17.80
2022-10-27T10:53:42.707Z,18.50
2022-10-27T10:56:20.379Z,19.83
2022-10-27T10:58:43.467Z,19.27
2022-10-27T11:01:07.956Z,18.08
2022-10-27T11:03:36.683Z,18.60
2022-10-27T11:06:02.333Z,18.50
2022-10-27T11:08:33.610Z,17.37
2022-10-27T11:10:58.877Z,17.92
2022-10-27T11:13:31.916Z,16.85
2022-10-27T11:16:00.156Z,16.95
2022-10-27T11:18:30.859Z,18.17
2022-10-27T11:20:59.487Z,18.50
2022-10-27T11:23:29.557Z,17.40
2022-10-27T11:25:53.394Z,18.50
2022-10-27T11:28:31.453Z,18.10
2022-10-27T11:31:09.501Z,18.45
2022-10-27T11:33:54.042Z,17.77
2022-10-27T11:36:47.926Z,17.50
2022-10-27T11:39:36.534Z,18.15
2022-10-27T11:42:27.401Z,18.38
2022-10-27T11:45:06.417Z,18.48
2022-10-27T11:47:35.075Z,17.80
2022-10-27T11:49:59.990Z,19.63
2022-10-27T11:52:25.658Z,19.25
2022-10-27T11:54:48.838Z,18.55
2022-10-27T11:57:21.699Z,18.80
2022-10-27T12:00:01.420Z,18.97
2022-10-27T12:02:42.676Z,19.58
2022-10-27T12:05:21.517Z,19.45
2022-10-27T12:07:55.113Z,19.48
2022-10-27T12:10:31.850Z,19.73
2022-10-27T12:13:14.611Z,18.63
2022-10-27T12:15:57.829Z,19.77
2022-10-27T12:18:29.392Z,19.52
2022-10-27T12:21:20.930Z,19.20
2022-10-27T12:24:06.514Z,18.35
2022-10-27T12:26:45.392Z,20.20
2022-10-27T12:29:09.629Z,19.67
2022-10-27T12:31:37.138Z,19.55
2022-10-27T12:34:02.263Z,19.55
2022-10-27T12:36:48.164Z,19.30
2022-10-27T12:39:29.224Z,19.27
2022-10-27T12:42:09.940Z,21.85
2022-10-27T12:44:35.356Z,23.50
2022-10-27T12:47:26.727Z,21.52
2022-10-27T12:50:33.163Z,31.30
2022-10-27T12:53:06.334Z,29.67
2022-10-27T12:55:47.874Z,21.35
2022-10-27T12:58:23.584Z,20.73
2022-10-27T13:01:21.821Z,22.02
2022-10-27T13:04:09.014Z,21.77
2022-10-27T13:07:19.810Z,19.53
2022-10-27T13:09:57.541Z,20.45
2022-10-27T13:12:29.127Z,21.23
2022-10-27T13:15:17.643Z,20.67
2022-10-27T13:17:59.092Z,22.27
2022-10-27T13:21:01.914Z,22.80
2022-10-27T13:23:48.091Z,21.52
2022-10-27T13:26:44.408Z,22.58
2022-10-27T13:29:31.133Z,20.90
2022-10-27T13:32:18.117Z,21.60
2022-10-27T13:34:40.922Z,21.93
2022-10-27T13:37:41.299Z,21.92
2022-10-27T13:40:27.062Z,22.15
2022-10-27T13:42:54.540Z,21.80
2022-10-27T13:45:35.507Z,22.73
2022-10-27T13:48:08.430Z,21.97
2022-10-27T13:50:33.975Z,22.38
2022-10-27T13:53:16.480Z,22.00
2022-10-27T13:55:39.820Z,21.88
2022-10-27T13:58:20.945Z,22.58
2022-10-27T14:01:04.395Z,21.43
2022-10-27T14:03:32.945Z,21.98
2022-10-27T14:05:56.127Z,22.38
2022-10-27T14:08:24.704Z,22.40
2022-10-27T14:10:48.095Z,22.30
2022-10-27T14:13:40.918Z,21.83
2022-10-27T14:16:04.600Z,22.70
2022-10-27T14:18:32.505Z,22.52
2022-10-27T14:20:57.990Z,22.25
2022-10-27T14:23:21.222Z,22.05
2022-10-27T14:25:43.899Z,22.07
2022-10-27T14:28:06.461Z,21.80
2022-10-27T14:30:30.021Z,21.33
2022-10-27T14:32:52.785Z,22.30
2022-10-27T14:35:28.023Z,21.55
2022-10-27T14:37:51.948Z,21.53
2022-10-27T14:40:37.808Z,21.65
2022-10-27T14:43:00.490Z,21.25
2022-10-27T14:45:23.682Z,22.02
2022-10-27T14:48:11.091Z,23.40
2022-10-27T14:50:36.744Z,21.60
2022-10-27T14:53:00.830Z,21.85
2022-10-27T14:55:31.252Z,22.42
2022-10-27T14:57:54.588Z,21.50
2022-10-27T15:00:22.434Z,21.33
2022-10-27T15:02:45.380Z,21.43
2022-10-27T15:05:13.006Z,21.52
2022-10-27T15:07:36.496Z,21.27
2022-10-27T15:09:59.203Z,20.45
2022-10-27T15:12:28.897Z,21.17
2022-10-27T15:14:53.741Z,20.60
2022-10-27T15:17:19.959Z,21.83
2022-10-27T15:19:47.754Z,21.88
2022-10-27T15:22:10.837Z,21.85
2022-10-27T15:24:33.383Z,20.90
2022-10-27T15:26:56.486Z,21.47
2022-10-27T15:29:21.741Z,20.88
2022-10-27T15:31:45.450Z,21.40
2022-10-27T15:37:26.662Z,21.23
2022-10-27T15:39:50.261Z,19.90
2022-10-27T15:42:17.542Z,21.35
2022-10-27T15:44:40.217Z,22.33
2022-10-27T15:47:31.597Z,21.70
2022-10-27T15:49:54.380Z,21.83
2022-10-27T15:52:21.348Z,21.90
2022-10-27T15:54:54.671Z,22.08
2022-10-27T15:57:41.118Z,21.33
2022-10-27T16:00:12.757Z,22.40
2022-10-27T16:02:37.182Z,21.70
2022-10-27T16:04:59.778Z,21.60
2022-10-27T16:07:22.386Z,23.02
2022-10-27T16:09:47.170Z,23.58
2022-10-27T16:12:15.973Z,21.73
2022-10-27T16:14:38.474Z,21.75
2022-10-27T16:17:01.032Z,21.17
2022-10-27T16:19:23.888Z,22.60
2022-10-27T16:21:46.580Z,21.25
2022-10-27T16:24:16.258Z,21.63
2022-10-27T16:26:39.495Z,21.65
2022-10-27T16:29:02.035Z,20.27
2022-10-27T16:31:25.348Z,20.27
2022-10-27T16:33:48.546Z,19.83
2022-10-27T16:36:13.406Z,19.52
2022-10-27T16:38:35.950Z,20.13
2022-10-27T16:40:58.869Z,18.70
2022-10-27T16:43:29.531Z,36.03
2022-10-27T16:45:52.364Z,24.70
2022-10-27T16:48:15.088Z,18.20
2022-10-27T16:50:37.693Z,19.98
2022-10-27T16:53:00.736Z,18.80
2022-10-27T16:55:24.036Z,19.30
2022-10-27T16:57:49.641Z,18.60
2022-10-27T17:00:13.984Z,19.15
2022-10-27T17:02:37.106Z,18.60
2022-10-27T17:04:59.700Z,19.23
2022-10-27T17:07:22.454Z,19.48
2022-10-27T17:09:45.255Z,20.30
2022-10-27T17:12:07.851Z,21.13
2022-10-27T17:14:33.702Z,21.08
2022-10-27T17:16:56.373Z,21.33
2022-10-27T17:19:19.316Z,21.20
2022-10-27T17:21:42.202Z,22.20
2022-10-27T17:24:05.530Z,21.40
2022-10-27T17:26:28.205Z,23.20
2022-10-27T17:28:52.200Z,23.33
2022-10-27T17:31:19.361Z,22.30
2022-10-27T17:33:46.781Z,23.02
2022-10-27T17:36:15.935Z,23.67
2022-10-27T17:38:38.602Z,22.90
2022-10-27T17:41:02.702Z,24.00
2022-10-27T17:43:25.975Z,26.42
2022-10-27T17:46:08.197Z,24.23
2022-10-27T17:48:42.720Z,22.48
2022-10-27T17:51:15.211Z,24.30
2022-10-27T17:53:39.097Z,24.50
2022-10-27T17:56:04.065Z,21.73
2022-10-27T17:58:34.067Z,23.52
2022-10-27T18:01:06.029Z,23.08
2022-10-27T18:03:28.776Z,24.05
2022-10-27T18:05:51.693Z,23.03
2022-10-27T18:08:14.495Z,24.35
2022-10-27T18:10:37.985Z,24.58
2022-10-27T18:13:00.839Z,24.08
2022-10-27T18:15:35.350Z,24.23
2022-10-27T18:17:59.225Z,24.10
2022-10-27T18:20:22.104Z,24.15
2022-10-27T18:22:45.154Z,24.73
2022-10-27T18:25:09.079Z,25.00
2022-10-27T18:27:31.828Z,25.45
2022-10-27T18:29:54.636Z,25.17
2022-10-27T18:32:21.984Z,27.85
2022-10-27T18:34:45.259Z,31.85
2022-10-27T18:37:08.047Z,30.48
2022-10-27T18:39:30.672Z,30.33
2022-10-27T18:41:53.622Z,29.77
2022-10-27T18:44:17.554Z,28.65
2022-10-27T18:46:40.444Z,28.95
2022-10-27T18:49:04.206Z,29.73
2022-10-27T18:51:29.968Z,29.38
2022-10-27T18:53:58.052Z,30.17
2022-10-27T18:56:21.805Z,30.08
2022-10-27T18:58:46.623Z,29.50
2022-10-27T19:01:12.702Z,28.90
2022-10-27T19:03:35.913Z,29.67
2022-10-27T19:06:03.736Z,29.90
2022-10-27T19:08:26.407Z,30.67
2022-10-27T19:10:49.190Z,30.90
2022-10-27T19:13:12.075Z,32.58
2022-10-27T19:15:35.191Z,33.47
2022-10-27T19:18:01.179Z,30.30
2022-10-27T19:20:24.316Z,29.55
2022-10-27T19:22:48.271Z,29.15
2022-10-27T19:25:11.588Z,28.27
2022-10-27T19:27:34.397Z,28.70
2022-10-27T19:29:57.292Z,29.53
2022-10-27T19:32:20.132Z,29.27
2022-10-27T19:34:45.090Z,28.13
2022-10-27T19:37:10.629Z,30.23
2022-10-27T19:39:33.820Z,28.67
2022-10-27T19:41:57.814Z,29.00
2022-10-27T19:44:23.861Z,27.95
2022-10-27T19:46:46.633Z,33.25
2022-10-27T19:49:14.561Z,38.22
2022-10-27T19:51:38.375Z,36.67
2022-10-27T19:54:02.553Z,34.63
2022-10-27T19:56:27.508Z,31.75
2022-10-27T19:58:58.220Z,29.00
2022-10-27T20:01:24.217Z,25.58
2022-10-27T20:03:47.863Z,26.58
2022-10-27T20:06:11.303Z,25.67
2022-10-27T20:08:33.776Z,25.25
2022-10-27T20:10:56.746Z,22.73
2022-10-27T20:13:19.486Z,23.42
2022-10-27T20:15:42.399Z,24.58
2022-10-27T20:18:05.312Z,23.17
2022-10-27T20:20:28.366Z,21.58
2022-10-27T20:22:51.176Z,22.13
2022-10-27T20:25:15.171Z,22.20
2022-10-27T20:27:38.013Z,22.83
2022-10-27T20:30:00.764Z,22.60
2022-10-27T20:32:23.865Z,22.73
2022-10-27T20:34:46.531Z,21.88
2022-10-27T20:37:10.377Z,22.45
2022-10-27T20:39:33.077Z,20.58
2022-10-27T20:41:55.724Z,21.23
2022-10-27T20:44:26.363Z,22.10
2022-10-27T20:46:49.236Z,22.05
2022-10-27T20:49:11.943Z,22.65
2022-10-27T20:51:34.969Z,21.27
2022-10-27T20:53:58.140Z,20.20
2022-10-27T20:56:20.907Z,20.20
2022-10-27T20:58:43.473Z,21.63
2022-10-27T21:01:31.437Z,20.23
2022-10-27T21:03:55.716Z,20.40
2022-10-27T21:06:18.727Z,20.27
2022-10-27T21:08:41.288Z,19.75
2022-10-27T21:11:03.958Z,20.52
2022-10-27T21:13:26.608Z,20.70
2022-10-27T21:15:56.689Z,20.50
2022-10-27T21:18:19.300Z,20.27
2022-10-27T21:20:41.793Z,20.98
2022-10-27T21:23:04.366Z,19.52
2022-10-27T21:25:27.368Z,21.10
2022-10-27T21:27:57.520Z,19.65
2022-10-27T21:30:20.651Z,19.37
2022-10-27T21:32:43.361Z,18.20
2022-10-27T21:35:06.619Z,18.23
2022-10-27T21:37:29.290Z,17.50
2022-10-27T21:39:54.000Z,18.10
2022-10-27T21:42:17.838Z,17.70
2022-10-27T21:44:40.425Z,17.73
2022-10-27T21:47:03.082Z,17.35
2022-10-27T21:49:25.645Z,17.33
2022-10-27T21:51:52.477Z,17.55
2022-10-27T21:54:15.473Z,17.20
2022-10-27T21:56:42.357Z,17.80
2022-10-27T21:59:05.024Z,17.80
2022-10-27T22:01:28.729Z,17.98
2022-10-27T22:03:51.653Z,18.73
2022-10-27T22:06:18.744Z,17.83
2022-10-27T22:08:41.473Z,16.95
2022-10-27T22:11:10.499Z,17.98
2022-10-27T22:13:33.678Z,16.98
2022-10-27T22:15:56.243Z,17.60
2022-10-27T22:18:19.209Z,17.20
2022-10-27T22:20:41.904Z,17.02
2022-10-27T22:23:04.625Z,18.05
2022-10-27T22:25:27.231Z,16.95
2022-10-27T22:27:49.790Z,17.10
2022-10-27T22:30:12.585Z,16.60
2022-10-27T22:32:35.181Z,16.75
2022-10-27T22:34:58.601Z,17.55
2022-10-27T22:37:21.241Z,17.42
2022-10-27T22:39:44.003Z,16.75
2022-10-27T22:42:07.884Z,16.97
2022-10-27T22:44:30.395Z,16.77
2022-10-27T22:46:52.914Z,16.13
2022-10-27T22:49:15.932Z,16.27
2022-10-27T22:51:40.188Z,17.08
2022-10-27T22:54:04.393Z,17.13
2022-10-27T22:56:34.012Z,16.52
2022-10-27T22:59:01.680Z,16.60
2022-10-27T23:01:27.013Z,16.20
2022-10-27T23:03:54.859Z,16.42
2022-10-27T23:06:17.594Z,16.27
2022-10-27T23:08:40.235Z,16.88
2022-10-27T23:11:06.369Z,16.00
2022-10-27T23:13:33.887Z,15.77
2022-10-27T23:16:01.425Z,16.45
2022-10-27T23:18:25.012Z,16.57
2022-10-27T23:20:47.750Z,17.65
2022-10-27T23:23:10.388Z,16.95
2022-10-27T23:25:36.652Z,16.33
2022-10-27T23:28:01.486Z,16.23
2022-10-27T23:30:23.933Z,15.40
2022-10-27T23:32:46.446Z,16.33
2022-10-27T23:35:09.144Z,16.98
2022-10-27T23:37:31.823Z,15.95
2022-10-27T23:39:54.397Z,15.90
2022-10-27T23:42:17.005Z,16.57
2022-10-27T23:44:39.560Z,16.67
2022-10-27T23:47:02.222Z,16.23
2022-10-27T23:49:24.682Z,15.77
2022-10-27T23:51:47.295Z,14.95
2022-10-27T23:54:09.872Z,16.03
2022-10-27T23:56:32.491Z,15.15
2022-10-27T23:58:55.213Z,14.50
